sensor_id;sensor_type;location;lat;lon;timestamp;P1;durP1;ratioP1;P2;durP2;ratioP2
52866;SDS011;38739;53.324;6.862;2022-11-18T00:00:46;15.32;;;11.35;;
52866;SDS011;38739;53.324;6.862;2022-11-18T00:03:12;18.90;;;12.20;;
52866;SDS011;38739;53.324;6.862;2022-11-18T00:05:38;16.13;;;11.68;;
52866;SDS011;38739;53.324;6.862;2022-11-18T00:08:04;15.02;;;11.65;;
52866;SDS011;38739;53.324;6.862;2022-11-18T00:10:30;15.35;;;11.80;;
52866;SDS011;38739;53.324;6.862;2022-11-18T00:12:55;17.27;;;11.52;;
52866;SDS011;38739;53.324;6.862;2022-11-18T00:15:40;15.10;;;11.45;;
52866;SDS011;38739;53.324;6.862;2022-11-18T00:18:06;15.98;;;11.75;;
52866;SDS011;38739;53.324;6.862;2022-11-18T00:20:32;17.27;;;12.27;;
52866;SDS011;38739;53.324;6.862;2022-11-18T00:22:59;18.20;;;12.75;;
52866;SDS011;38739;53.324;6.862;2022-11-18T00:25:25;15.85;;;11.48;;
52866;SDS011;38739;53.324;6.862;2022-11-18T00:27:51;17.20;;;11.90;;
52866;SDS011;38739;53.324;6.862;2022-11-18T00:30:17;17.30;;;12.18;;
52866;SDS011;38739;53.324;6.862;2022-11-18T00:32:43;17.58;;;11.95;;
52866;SDS011;38739;53.324;6.862;2022-11-18T00:35:09;16.85;;;12.45;;
52866;SDS011;38739;53.324;6.862;2022-11-18T00:37:34;18.38;;;12.60;;
52866;SDS011;38739;53.324;6.862;2022-11-18T00:40:00;19.17;;;12.88;;
52866;SDS011;38739;53.324;6.862;2022-11-18T00:42:26;20.67;;;13.20;;
52866;SDS011;38739;53.324;6.862;2022-11-18T00:45:10;21.80;;;12.95;;
52866;SDS011;38739;53.324;6.862;2022-11-18T00:47:36;20.58;;;13.68;;
52866;SDS011;38739;53.324;6.862;2022-11-18T00:50:01;19.33;;;12.80;;
52866;SDS011;38739;53.324;6.862;2022-11-18T00:52:28;20.95;;;13.15;;
52866;SDS011;38739;53.324;6.862;2022-11-18T00:54:53;20.95;;;14.20;;
52866;SDS011;38739;53.324;6.862;2022-11-18T00:57:19;20.25;;;13.25;;
52866;SDS011;38739;53.324;6.862;2022-11-18T00:59:45;24.05;;;14.43;;
52866;SDS011;38739;53.324;6.862;2022-11-18T01:02:10;21.42;;;13.80;;
52866;SDS011;38739;53.324;6.862;2022-11-18T01:04:36;21.80;;;14.23;;
52866;SDS011;38739;53.324;6.862;2022-11-18T01:07:02;22.67;;;14.00;;
52866;SDS011;38739;53.324;6.862;2022-11-18T01:09:27;21.95;;;13.80;;
52866;SDS011;38739;53.324;6.862;2022-11-18T01:11:53;24.15;;;13.75;;
52866;SDS011;38739;53.324;6.862;2022-11-18T01:14:37;21.20;;;13.10;;
52866;SDS011;38739;53.324;6.862;2022-11-18T01:17:03;21.35;;;13.45;;
52866;SDS011;38739;53.324;6.862;2022-11-18T01:19:28;19.90;;;12.75;;
52866;SDS011;38739;53.324;6.862;2022-11-18T01:21:54;20.50;;;12.43;;
52866;SDS011;38739;53.324;6.862;2022-11-18T01:26:53;19.67;;;11.48;;
52866;SDS011;38739;53.324;6.862;2022-11-18T01:29:18;18.23;;;11.80;;
52866;SDS011;38739;53.324;6.862;2022-11-18T01:31:44;21.55;;;12.02;;
52866;SDS011;38739;53.324;6.862;2022-11-18T01:34:10;16.58;;;10.95;;
52866;SDS011;38739;53.324;6.862;2022-11-18T01:36:36;18.38;;;11.38;;
52866;SDS011;38739;53.324;6.862;2022-11-18T01:39:01;18.13;;;11.15;;
52866;SDS011;38739;53.324;6.862;2022-11-18T01:41:27;19.10;;;11.90;;
52866;SDS011;38739;53.324;6.862;2022-11-18T01:46:24;18.42;;;12.32;;
52866;SDS011;38739;53.324;6.862;2022-11-18T01:48:53;21.63;;;13.02;;
52866;SDS011;38739;53.324;6.862;2022-11-18T01:51:24;21.65;;;12.18;;
52866;SDS011;38739;53.324;6.862;2022-11-18T01:53:57;23.48;;;12.18;;
52866;SDS011;38739;53.324;6.862;2022-11-18T01:56:32;19.80;;;12.38;;
52866;SDS011;38739;53.324;6.862;2022-11-18T01:59:04;23.75;;;12.80;;
52866;SDS011;38739;53.324;6.862;2022-11-18T02:01:33;23.75;;;14.35;;
52866;SDS011;38739;53.324;6.862;2022-11-18T02:03:59;22.10;;;14.15;;
52866;SDS011;38739;53.324;6.862;2022-11-18T02:06:25;22.67;;;14.07;;
52866;SDS011;38739;53.324;6.862;2022-11-18T02:08:51;25.45;;;13.77;;
52866;SDS011;38739;53.324;6.862;2022-11-18T02:11:17;25.17;;;14.35;;
52866;SDS011;38739;53.324;6.862;2022-11-18T02:14:02;23.98;;;13.52;;
52866;SDS011;38739;53.324;6.862;2022-11-18T02:24:28;28.23;;;14.40;;
52866;SDS011;38739;53.324;6.862;2022-11-18T02:29:55;26.10;;;13.55;;
52866;SDS011;38739;53.324;6.862;2022-11-18T02:32:33;25.48;;;13.77;;
52866;SDS011;38739;53.324;6.862;2022-11-18T02:37:56;23.27;;;13.55;;
52866;SDS011;38739;53.324;6.862;2022-11-18T02:40:46;23.95;;;13.60;;
52866;SDS011;38739;53.324;6.862;2022-11-18T02:43:19;26.10;;;13.25;;
52866;SDS011;38739;53.324;6.862;2022-11-18T02:45:54;25.98;;;13.68;;
52866;SDS011;38739;53.324;6.862;2022-11-18T02:48:24;25.20;;;13.65;;
52866;SDS011;38739;53.324;6.862;2022-11-18T02:50:56;23.30;;;12.98;;
52866;SDS011;38739;53.324;6.862;2022-11-18T02:53:24;24.40;;;13.95;;
52866;SDS011;38739;53.324;6.862;2022-11-18T02:55:54;22.52;;;13.40;;
52866;SDS011;38739;53.324;6.862;2022-11-18T02:58:20;25.30;;;13.40;;
52866;SDS011;38739;53.324;6.862;2022-11-18T03:00:55;24.60;;;13.30;;
52866;SDS011;38739;53.324;6.862;2022-11-18T03:03:26;22.38;;;12.80;;
52866;SDS011;38739;53.324;6.862;2022-11-18T03:08:44;19.92;;;12.32;;
52866;SDS011;38739;53.324;6.862;2022-11-18T03:11:15;24.30;;;13.57;;
52866;SDS011;38739;53.324;6.862;2022-11-18T03:16:43;24.85;;;13.00;;
52866;SDS011;38739;53.324;6.862;2022-11-18T03:19:27;23.08;;;12.25;;
52866;SDS011;38739;53.324;6.862;2022-11-18T03:22:04;21.23;;;12.63;;
52866;SDS011;38739;53.324;6.862;2022-11-18T03:24:39;25.38;;;13.13;;
52866;SDS011;38739;53.324;6.862;2022-11-18T03:27:15;23.27;;;12.93;;
52866;SDS011;38739;53.324;6.862;2022-11-18T03:30:07;24.73;;;13.05;;
52866;SDS011;38739;53.324;6.862;2022-11-18T03:32:38;23.00;;;12.95;;
52866;SDS011;38739;53.324;6.862;2022-11-18T03:35:11;24.55;;;12.35;;
52866;SDS011;38739;53.324;6.862;2022-11-18T03:37:41;22.85;;;13.25;;
52866;SDS011;38739;53.324;6.862;2022-11-18T03:40:20;22.73;;;11.75;;
52866;SDS011;38739;53.324;6.862;2022-11-18T03:42:51;22.42;;;12.40;;
52866;SDS011;38739;53.324;6.862;2022-11-18T03:45:24;21.27;;;11.80;;
52866;SDS011;38739;53.324;6.862;2022-11-18T03:48:04;19.50;;;11.52;;
52866;SDS011;38739;53.324;6.862;2022-11-18T03:50:42;18.52;;;11.07;;
52866;SDS011;38739;53.324;6.862;2022-11-18T03:53:14;20.25;;;12.00;;
52866;SDS011;38739;53.324;6.862;2022-11-18T03:55:42;24.38;;;12.13;;
52866;SDS011;38739;53.324;6.862;2022-11-18T03:58:18;22.80;;;12.77;;
52866;SDS011;38739;53.324;6.862;2022-11-18T04:01:02;21.45;;;11.68;;
52866;SDS011;38739;53.324;6.862;2022-11-18T04:03:33;21.95;;;12.57;;
52866;SDS011;38739;53.324;6.862;2022-11-18T04:06:03;19.73;;;11.60;;
52866;SDS011;38739;53.324;6.862;2022-11-18T04:08:39;20.77;;;11.60;;
52866;SDS011;38739;53.324;6.862;2022-11-18T04:11:12;20.25;;;11.80;;
52866;SDS011;38739;53.324;6.862;2022-11-18T04:14:01;21.05;;;11.95;;
52866;SDS011;38739;53.324;6.862;2022-11-18T04:16:30;22.77;;;11.93;;
52866;SDS011;38739;53.324;6.862;2022-11-18T04:19:02;20.48;;;12.23;;
52866;SDS011;38739;53.324;6.862;2022-11-18T04:21:27;18.42;;;11.45;;
52866;SDS011;38739;53.324;6.862;2022-11-18T04:23:53;21.08;;;12.02;;
52866;SDS011;38739;53.324;6.862;2022-11-18T04:26:19;19.38;;;11.15;;
52866;SDS011;38739;53.324;6.862;2022-11-18T04:28:44;21.52;;;11.70;;
52866;SDS011;38739;53.324;6.862;2022-11-18T04:31:10;22.58;;;11.13;;
52866;SDS011;38739;53.324;6.862;2022-11-18T04:33:36;21.02;;;11.85;;
52866;SDS011;38739;53.324;6.862;2022-11-18T04:36:01;21.48;;;11.68;;
52866;SDS011;38739;53.324;6.862;2022-11-18T04:38:27;19.83;;;11.13;;
52866;SDS011;38739;53.324;6.862;2022-11-18T04:40:53;22.73;;;11.23;;
52866;SDS011;38739;53.324;6.862;2022-11-18T04:43:18;19.75;;;11.10;;
52866;SDS011;38739;53.324;6.862;2022-11-18T04:45:44;19.58;;;10.93;;
52866;SDS011;38739;53.324;6.862;2022-11-18T04:48:10;20.33;;;11.38;;
52866;SDS011;38739;53.324;6.862;2022-11-18T04:50:35;22.13;;;11.80;;
52866;SDS011;38739;53.324;6.862;2022-11-18T04:53:01;21.25;;;12.23;;
52866;SDS011;38739;53.324;6.862;2022-11-18T04:55:27;24.38;;;12.20;;
52866;SDS011;38739;53.324;6.862;2022-11-18T04:57:52;20.67;;;11.48;;
52866;SDS011;38739;53.324;6.862;2022-11-18T05:00:18;20.05;;;11.10;;
52866;SDS011;38739;53.324;6.862;2022-11-18T05:02:47;21.25;;;11.45;;
52866;SDS011;38739;53.324;6.862;2022-11-18T05:05:12;20.13;;;11.15;;
52866;SDS011;38739;53.324;6.862;2022-11-18T05:07:38;18.98;;;11.73;;
52866;SDS011;38739;53.324;6.862;2022-11-18T05:10:04;22.77;;;12.55;;
52866;SDS011;38739;53.324;6.862;2022-11-18T05:12:30;23.88;;;12.50;;
52866;SDS011;38739;53.324;6.862;2022-11-18T05:15:14;23.33;;;11.32;;
52866;SDS011;38739;53.324;6.862;2022-11-18T05:17:41;24.00;;;12.40;;
52866;SDS011;38739;53.324;6.862;2022-11-18T05:20:07;21.33;;;11.75;;
52866;SDS011;38739;53.324;6.862;2022-11-18T05:22:33;25.27;;;12.45;;
52866;SDS011;38739;53.324;6.862;2022-11-18T05:24:59;23.83;;;11.85;;
52866;SDS011;38739;53.324;6.862;2022-11-18T05:27:25;22.77;;;11.95;;
52866;SDS011;38739;53.324;6.862;2022-11-18T05:29:52;25.00;;;12.63;;
52866;SDS011;38739;53.324;6.862;2022-11-18T05:32:18;22.30;;;10.93;;
52866;SDS011;38739;53.324;6.862;2022-11-18T05:34:44;22.63;;;12.27;;
52866;SDS011;38739;53.324;6.862;2022-11-18T05:37:09;24.13;;;11.95;;
52866;SDS011;38739;53.324;6.862;2022-11-18T05:39:35;21.88;;;11.88;;
52866;SDS011;38739;53.324;6.862;2022-11-18T05:42:01;24.33;;;11.68;;
52866;SDS011;38739;53.324;6.862;2022-11-18T05:44:45;23.00;;;12.07;;
52866;SDS011;38739;53.324;6.862;2022-11-18T05:47:10;23.77;;;12.43;;
52866;SDS011;38739;53.324;6.862;2022-11-18T05:49:36;25.15;;;12.90;;
52866;SDS011;38739;53.324;6.862;2022-11-18T05:52:02;24.65;;;12.68;;
52866;SDS011;38739;53.324;6.862;2022-11-18T05:54:28;25.05;;;12.27;;
52866;SDS011;38739;53.324;6.862;2022-11-18T05:56:54;27.52;;;12.75;;
52866;SDS011;38739;53.324;6.862;2022-11-18T05:59:19;27.33;;;12.88;;
52866;SDS011;38739;53.324;6.862;2022-11-18T06:06:52;25.15;;;13.13;;
52866;SDS011;38739;53.324;6.862;2022-11-18T06:09:22;27.50;;;13.40;;
52866;SDS011;38739;53.324;6.862;2022-11-18T06:11:54;28.55;;;13.70;;
52866;SDS011;38739;53.324;6.862;2022-11-18T06:14:23;31.15;;;14.23;;
52866;SDS011;38739;53.324;6.862;2022-11-18T06:16:52;29.38;;;12.15;;
52866;SDS011;38739;53.324;6.862;2022-11-18T06:19:22;28.67;;;12.75;;
52866;SDS011;38739;53.324;6.862;2022-11-18T06:21:49;28.13;;;12.30;;
52866;SDS011;38739;53.324;6.862;2022-11-18T06:24:15;27.58;;;12.07;;
52866;SDS011;38739;53.324;6.862;2022-11-18T06:26:42;25.20;;;12.27;;
52866;SDS011;38739;53.324;6.862;2022-11-18T06:29:08;25.25;;;11.88;;
52866;SDS011;38739;53.324;6.862;2022-11-18T06:31:37;24.85;;;12.18;;
52866;SDS011;38739;53.324;6.862;2022-11-18T06:34:03;27.55;;;12.93;;
52866;SDS011;38739;53.324;6.862;2022-11-18T06:36:29;39.05;;;17.42;;
52866;SDS011;38739;53.324;6.862;2022-11-18T06:38:54;31.90;;;16.33;;
52866;SDS011;38739;53.324;6.862;2022-11-18T06:41:20;31.10;;;15.15;;
52866;SDS011;38739;53.324;6.862;2022-11-18T06:43:46;31.10;;;13.68;;
52866;SDS011;38739;53.324;6.862;2022-11-18T06:46:13;27.17;;;13.57;;
52866;SDS011;38739;53.324;6.862;2022-11-18T06:48:59;26.20;;;13.13;;
52866;SDS011;38739;53.324;6.862;2022-11-18T06:51:26;24.65;;;12.43;;
52866;SDS011;38739;53.324;6.862;2022-11-18T06:53:52;26.83;;;13.07;;
52866;SDS011;38739;53.324;6.862;2022-11-18T06:56:19;25.20;;;12.30;;
52866;SDS011;38739;53.324;6.862;2022-11-18T06:58:46;26.50;;;13.50;;
52866;SDS011;38739;53.324;6.862;2022-11-18T07:03:39;26.70;;;13.18;;
52866;SDS011;38739;53.324;6.862;2022-11-18T07:06:06;25.83;;;13.20;;
52866;SDS011;38739;53.324;6.862;2022-11-18T07:08:35;30.35;;;14.15;;
52866;SDS011;38739;53.324;6.862;2022-11-18T07:11:03;29.75;;;14.00;;
52866;SDS011;38739;53.324;6.862;2022-11-18T07:13:31;34.80;;;16.75;;
52866;SDS011;38739;53.324;6.862;2022-11-18T07:16:16;38.53;;;20.15;;
52866;SDS011;38739;53.324;6.862;2022-11-18T07:18:44;38.95;;;20.38;;
52866;SDS011;38739;53.324;6.862;2022-11-18T07:21:15;34.50;;;16.27;;
52866;SDS011;38739;53.324;6.862;2022-11-18T07:23:45;35.85;;;17.50;;
52866;SDS011;38739;53.324;6.862;2022-11-18T07:26:11;30.27;;;15.15;;
52866;SDS011;38739;53.324;6.862;2022-11-18T07:28:38;28.38;;;14.65;;
52866;SDS011;38739;53.324;6.862;2022-11-18T07:33:30;33.05;;;15.93;;
52866;SDS011;38739;53.324;6.862;2022-11-18T07:36:00;32.42;;;15.55;;
52866;SDS011;38739;53.324;6.862;2022-11-18T07:38:37;32.55;;;15.65;;
52866;SDS011;38739;53.324;6.862;2022-11-18T07:43:30;29.83;;;15.18;;
52866;SDS011;38739;53.324;6.862;2022-11-18T07:45:57;32.35;;;16.25;;
52866;SDS011;38739;53.324;6.862;2022-11-18T07:48:22;31.73;;;15.43;;
52866;SDS011;38739;53.324;6.862;2022-11-18T07:50:51;28.45;;;15.25;;
52866;SDS011;38739;53.324;6.862;2022-11-18T07:53:24;34.05;;;15.25;;
52866;SDS011;38739;53.324;6.862;2022-11-18T07:55:50;30.05;;;15.23;;
52866;SDS011;38739;53.324;6.862;2022-11-18T07:58:16;31.73;;;15.88;;
52866;SDS011;38739;53.324;6.862;2022-11-18T08:00:41;32.20;;;15.57;;
52866;SDS011;38739;53.324;6.862;2022-11-18T08:03:07;33.85;;;15.57;;
52866;SDS011;38739;53.324;6.862;2022-11-18T08:05:33;30.48;;;16.33;;
52866;SDS011;38739;53.324;6.862;2022-11-18T08:08:00;28.75;;;15.75;;
52866;SDS011;38739;53.324;6.862;2022-11-18T08:10:26;33.08;;;16.35;;
52866;SDS011;38739;53.324;6.862;2022-11-18T08:12:51;31.23;;;16.70;;
52866;SDS011;38739;53.324;6.862;2022-11-18T08:15:17;30.27;;;16.13;;
52866;SDS011;38739;53.324;6.862;2022-11-18T08:17:42;38.60;;;18.00;;
52866;SDS011;38739;53.324;6.862;2022-11-18T08:20:08;38.35;;;18.85;;
52866;SDS011;38739;53.324;6.862;2022-11-18T08:22:35;45.30;;;21.45;;
52866;SDS011;38739;53.324;6.862;2022-11-18T08:25:00;47.03;;;23.00;;
52866;SDS011;38739;53.324;6.862;2022-11-18T08:27:26;53.15;;;26.15;;
52866;SDS011;38739;53.324;6.862;2022-11-18T08:29:52;62.80;;;31.48;;
52866;SDS011;38739;53.324;6.862;2022-11-18T08:32:17;75.00;;;34.47;;
52866;SDS011;38739;53.324;6.862;2022-11-18T08:34:43;74.57;;;34.97;;
52866;SDS011;38739;53.324;6.862;2022-11-18T08:37:09;74.90;;;35.38;;
52866;SDS011;38739;53.324;6.862;2022-11-18T08:39:34;68.85;;;33.42;;
52866;SDS011;38739;53.324;6.862;2022-11-18T08:42:00;64.07;;;30.73;;
52866;SDS011;38739;53.324;6.862;2022-11-18T08:44:26;68.60;;;32.53;;
52866;SDS011;38739;53.324;6.862;2022-11-18T08:46:51;68.05;;;31.25;;
52866;SDS011;38739;53.324;6.862;2022-11-18T08:49:17;67.40;;;31.20;;
52866;SDS011;38739;53.324;6.862;2022-11-18T08:51:43;72.63;;;32.40;;
52866;SDS011;38739;53.324;6.862;2022-11-18T08:54:08;78.28;;;33.60;;
52866;SDS011;38739;53.324;6.862;2022-11-18T08:56:34;73.93;;;34.75;;
52866;SDS011;38739;53.324;6.862;2022-11-18T08:59:00;72.15;;;34.97;;
52866;SDS011;38739;53.324;6.862;2022-11-18T09:01:25;64.22;;;30.83;;
52866;SDS011;38739;53.324;6.862;2022-11-18T09:03:51;66.13;;;29.50;;
52866;SDS011;38739;53.324;6.862;2022-11-18T09:06:18;72.53;;;32.83;;
52866;SDS011;38739;53.324;6.862;2022-11-18T09:08:45;72.72;;;33.35;;
52866;SDS011;38739;53.324;6.862;2022-11-18T09:11:13;55.13;;;25.27;;
52866;SDS011;38739;53.324;6.862;2022-11-18T09:13:43;59.88;;;28.23;;
52866;SDS011;38739;53.324;6.862;2022-11-18T09:16:10;67.40;;;30.88;;
52866;SDS011;38739;53.324;6.862;2022-11-18T09:18:36;54.80;;;25.40;;
52866;SDS011;38739;53.324;6.862;2022-11-18T09:21:03;61.40;;;29.13;;
52866;SDS011;38739;53.324;6.862;2022-11-18T09:23:33;66.80;;;29.52;;
52866;SDS011;38739;53.324;6.862;2022-11-18T09:26:01;63.83;;;27.00;;
52866;SDS011;38739;53.324;6.862;2022-11-18T09:28:27;72.28;;;31.23;;
52866;SDS011;38739;53.324;6.862;2022-11-18T09:30:53;76.72;;;33.30;;
52866;SDS011;38739;53.324;6.862;2022-11-18T09:33:19;82.05;;;34.15;;
52866;SDS011;38739;53.324;6.862;2022-11-18T09:35:46;75.82;;;33.60;;
52866;SDS011;38739;53.324;6.862;2022-11-18T09:38:11;70.25;;;29.85;;
52866;SDS011;38739;53.324;6.862;2022-11-18T09:49:26;71.82;;;32.20;;
52866;SDS011;38739;53.324;6.862;2022-11-18T09:54:48;61.65;;;27.83;;
52866;SDS011;38739;53.324;6.862;2022-11-18T09:57:15;54.70;;;26.33;;
52866;SDS011;38739;53.324;6.862;2022-11-18T09:59:46;55.30;;;26.05;;
52866;SDS011;38739;53.324;6.862;2022-11-18T10:02:21;48.75;;;24.98;;
52866;SDS011;38739;53.324;6.862;2022-11-18T10:05:00;54.17;;;25.65;;
52866;SDS011;38739;53.324;6.862;2022-11-18T10:07:58;61.67;;;27.45;;
52866;SDS011;38739;53.324;6.862;2022-11-18T10:10:29;66.70;;;30.25;;
52866;SDS011;38739;53.324;6.862;2022-11-18T10:13:21;54.63;;;27.20;;
52866;SDS011;38739;53.324;6.862;2022-11-18T10:26:49;55.28;;;27.15;;
52866;SDS011;38739;53.324;6.862;2022-11-18T10:29:23;57.78;;;28.70;;
52866;SDS011;38739;53.324;6.862;2022-11-18T10:31:53;65.43;;;32.10;;
52866;SDS011;38739;53.324;6.862;2022-11-18T10:34:29;60.92;;;31.27;;
52866;SDS011;38739;53.324;6.862;2022-11-18T10:36:57;60.50;;;31.20;;
52866;SDS011;38739;53.324;6.862;2022-11-18T10:39:26;57.08;;;30.45;;
52866;SDS011;38739;53.324;6.862;2022-11-18T10:41:53;59.08;;;30.20;;
52866;SDS011;38739;53.324;6.862;2022-11-18T10:44:26;55.92;;;28.13;;
52866;SDS011;38739;53.324;6.862;2022-11-18T10:46:52;57.50;;;29.58;;
52866;SDS011;38739;53.324;6.862;2022-11-18T10:49:18;48.15;;;25.95;;
52866;SDS011;38739;53.324;6.862;2022-11-18T10:51:44;52.03;;;27.27;;
52866;SDS011;38739;53.324;6.862;2022-11-18T10:54:16;59.95;;;29.75;;
52866;SDS011;38739;53.324;6.862;2022-11-18T10:59:27;61.27;;;31.67;;
52866;SDS011;38739;53.324;6.862;2022-11-18T11:04:39;41.53;;;20.38;;
52866;SDS011;38739;53.324;6.862;2022-11-18T11:07:16;62.70;;;32.25;;
52866;SDS011;38739;53.324;6.862;2022-11-18T11:12:32;77.30;;;38.92;;
52866;SDS011;38739;53.324;6.862;2022-11-18T11:15:04;62.85;;;34.58;;
52866;SDS011;38739;53.324;6.862;2022-11-18T11:22:40;66.35;;;34.08;;
52866;SDS011;38739;53.324;6.862;2022-11-18T11:25:50;67.90;;;34.28;;
52866;SDS011;38739;53.324;6.862;2022-11-18T11:31:09;60.22;;;30.33;;
52866;SDS011;38739;53.324;6.862;2022-11-18T11:41:34;51.63;;;27.20;;
52866;SDS011;38739;53.324;6.862;2022-11-18T11:44:22;63.97;;;30.15;;
52866;SDS011;38739;53.324;6.862;2022-11-18T11:55:14;64.00;;;31.70;;
52866;SDS011;38739;53.324;6.862;2022-11-18T11:57:51;58.28;;;30.83;;
52866;SDS011;38739;53.324;6.862;2022-11-18T12:00:40;60.05;;;30.52;;
52866;SDS011;38739;53.324;6.862;2022-11-18T12:05:45;59.97;;;30.50;;
52866;SDS011;38739;53.324;6.862;2022-11-18T12:10:52;62.60;;;29.25;;
52866;SDS011;38739;53.324;6.862;2022-11-18T12:18:49;49.17;;;25.65;;
52866;SDS011;38739;53.324;6.862;2022-11-18T12:29:58;61.08;;;30.30;;
52866;SDS011;38739;53.324;6.862;2022-11-18T12:32:30;56.47;;;28.73;;
52866;SDS011;38739;53.324;6.862;2022-11-18T12:46:09;48.83;;;25.45;;
52866;SDS011;38739;53.324;6.862;2022-11-18T12:48:53;50.47;;;26.02;;
52866;SDS011;38739;53.324;6.862;2022-11-18T12:51:37;50.08;;;26.27;;
52866;SDS011;38739;53.324;6.862;2022-11-18T12:56:59;64.57;;;34.08;;
52866;SDS011;38739;53.324;6.862;2022-11-18T12:59:37;71.88;;;35.38;;
52866;SDS011;38739;53.324;6.862;2022-11-18T13:04:35;68.05;;;33.28;;
52866;SDS011;38739;53.324;6.862;2022-11-18T13:07:02;51.30;;;26.92;;
52866;SDS011;38739;53.324;6.862;2022-11-18T13:09:34;48.33;;;24.98;;
52866;SDS011;38739;53.324;6.862;2022-11-18T13:12:01;49.40;;;25.23;;
52866;SDS011;38739;53.324;6.862;2022-11-18T13:14:38;57.35;;;28.70;;
52866;SDS011;38739;53.324;6.862;2022-11-18T13:17:36;61.28;;;31.10;;
52866;SDS011;38739;53.324;6.862;2022-11-18T13:20:19;59.67;;;30.40;;
52866;SDS011;38739;53.324;6.862;2022-11-18T13:22:49;59.60;;;30.45;;
52866;SDS011;38739;53.324;6.862;2022-11-18T13:25:38;60.83;;;30.55;;
52866;SDS011;38739;53.324;6.862;2022-11-18T13:31:18;59.97;;;31.23;;
52866;SDS011;38739;53.324;6.862;2022-11-18T13:34:07;60.10;;;31.92;;
52866;SDS011;38739;53.324;6.862;2022-11-18T13:36:54;56.70;;;31.42;;
52866;SDS011;38739;53.324;6.862;2022-11-18T13:39:30;63.90;;;33.70;;
52866;SDS011;38739;53.324;6.862;2022-11-18T13:42:12;61.17;;;32.55;;
52866;SDS011;38739;53.324;6.862;2022-11-18T13:44:38;59.25;;;31.85;;
52866;SDS011;38739;53.324;6.862;2022-11-18T13:55:21;54.42;;;28.42;;
52866;SDS011;38739;53.324;6.862;2022-11-18T14:00:30;47.75;;;25.33;;
52866;SDS011;38739;53.324;6.862;2022-11-18T14:03:01;43.22;;;23.02;;
52866;SDS011;38739;53.324;6.862;2022-11-18T14:05:39;45.65;;;24.58;;
52866;SDS011;38739;53.324;6.862;2022-11-18T14:08:06;54.85;;;28.17;;
52866;SDS011;38739;53.324;6.862;2022-11-18T14:11:03;57.28;;;30.50;;
52866;SDS011;38739;53.324;6.862;2022-11-18T14:13:31;52.97;;;29.90;;
52866;SDS011;38739;53.324;6.862;2022-11-18T14:16:00;54.22;;;30.08;;
52866;SDS011;38739;53.324;6.862;2022-11-18T14:18:47;53.38;;;29.02;;
52866;SDS011;38739;53.324;6.862;2022-11-18T14:21:26;46.90;;;27.23;;
52866;SDS011;38739;53.324;6.862;2022-11-18T14:23:53;53.85;;;29.67;;
52866;SDS011;38739;53.324;6.862;2022-11-18T14:26:34;46.65;;;27.15;;
52866;SDS011;38739;53.324;6.862;2022-11-18T14:29:22;44.90;;;24.80;;
52866;SDS011;38739;53.324;6.862;2022-11-18T14:34:35;48.20;;;27.27;;
52866;SDS011;38739;53.324;6.862;2022-11-18T14:37:01;46.40;;;26.90;;
52866;SDS011;38739;53.324;6.862;2022-11-18T14:42:01;50.92;;;29.73;;
52866;SDS011;38739;53.324;6.862;2022-11-18T14:44:29;42.22;;;25.65;;
52866;SDS011;38739;53.324;6.862;2022-11-18T14:47:01;44.17;;;25.15;;
52866;SDS011;38739;53.324;6.862;2022-11-18T14:49:29;37.95;;;22.73;;
52866;SDS011;38739;53.324;6.862;2022-11-18T14:51:56;44.58;;;26.38;;
52866;SDS011;38739;53.324;6.862;2022-11-18T14:54:23;46.33;;;26.05;;
52866;SDS011;38739;53.324;6.862;2022-11-18T14:56:50;45.47;;;27.38;;
52866;SDS011;38739;53.324;6.862;2022-11-18T14:59:18;43.55;;;26.95;;
52866;SDS011;38739;53.324;6.862;2022-11-18T15:01:45;41.60;;;22.95;;
52866;SDS011;38739;53.324;6.862;2022-11-18T15:04:12;39.85;;;23.20;;
52866;SDS011;38739;53.324;6.862;2022-11-18T15:06:39;32.05;;;19.73;;
52866;SDS011;38739;53.324;6.862;2022-11-18T15:09:05;30.60;;;18.67;;
52866;SDS011;38739;53.324;6.862;2022-11-18T15:11:34;31.27;;;19.20;;
52866;SDS011;38739;53.324;6.862;2022-11-18T15:14:00;31.92;;;20.52;;
52866;SDS011;38739;53.324;6.862;2022-11-18T15:16:27;35.08;;;20.77;;
52866;SDS011;38739;53.324;6.862;2022-11-18T15:18:58;32.78;;;20.75;;
52866;SDS011;38739;53.324;6.862;2022-11-18T15:21:32;34.70;;;20.45;;
52866;SDS011;38739;53.324;6.862;2022-11-18T15:23:58;31.73;;;19.48;;
52866;SDS011;38739;53.324;6.862;2022-11-18T15:26:28;30.65;;;19.17;;
52866;SDS011;38739;53.324;6.862;2022-11-18T15:29:02;32.80;;;20.35;;
52866;SDS011;38739;53.324;6.862;2022-11-18T15:31:28;32.20;;;20.88;;
52866;SDS011;38739;53.324;6.862;2022-11-18T15:33:55;37.33;;;23.17;;
52866;SDS011;38739;53.324;6.862;2022-11-18T15:36:22;38.92;;;24.20;;
52866;SDS011;38739;53.324;6.862;2022-11-18T15:38:49;37.67;;;23.77;;
52866;SDS011;38739;53.324;6.862;2022-11-18T15:43:49;32.30;;;20.95;;
52866;SDS011;38739;53.324;6.862;2022-11-18T15:46:15;33.58;;;21.02;;
52866;SDS011;38739;53.324;6.862;2022-11-18T15:48:43;30.65;;;20.10;;
52866;SDS011;38739;53.324;6.862;2022-11-18T15:51:09;30.67;;;20.35;;
52866;SDS011;38739;53.324;6.862;2022-11-18T15:53:36;32.63;;;21.65;;
52866;SDS011;38739;53.324;6.862;2022-11-18T15:58:52;39.05;;;24.05;;
52866;SDS011;38739;53.324;6.862;2022-11-18T16:01:18;39.78;;;24.10;;
52866;SDS011;38739;53.324;6.862;2022-11-18T16:03:44;40.97;;;25.38;;
52866;SDS011;38739;53.324;6.862;2022-11-18T16:06:10;39.05;;;24.52;;
52866;SDS011;38739;53.324;6.862;2022-11-18T16:08:35;38.72;;;23.08;;
52866;SDS011;38739;53.324;6.862;2022-11-18T16:11:01;38.40;;;24.17;;
52866;SDS011;38739;53.324;6.862;2022-11-18T16:14:06;39.38;;;25.00;;
52866;SDS011;38739;53.324;6.862;2022-11-18T16:16:33;37.40;;;23.77;;
52866;SDS011;38739;53.324;6.862;2022-11-18T16:19:00;39.83;;;24.27;;
52866;SDS011;38739;53.324;6.862;2022-11-18T16:21:30;41.33;;;25.67;;
52866;SDS011;38739;53.324;6.862;2022-11-18T16:23:58;42.55;;;24.95;;
52866;SDS011;38739;53.324;6.862;2022-11-18T16:26:25;38.55;;;23.67;;
52866;SDS011;38739;53.324;6.862;2022-11-18T16:28:52;36.55;;;23.45;;
52866;SDS011;38739;53.324;6.862;2022-11-18T16:31:18;42.22;;;25.60;;
52866;SDS011;38739;53.324;6.862;2022-11-18T16:34:07;46.50;;;26.17;;
52866;SDS011;38739;53.324;6.862;2022-11-18T16:36:32;42.92;;;25.55;;
52866;SDS011;38739;53.324;6.862;2022-11-18T16:39:06;42.13;;;25.90;;
52866;SDS011;38739;53.324;6.862;2022-11-18T16:41:33;42.55;;;26.70;;
52866;SDS011;38739;53.324;6.862;2022-11-18T16:44:00;42.13;;;26.00;;
52866;SDS011;38739;53.324;6.862;2022-11-18T16:46:28;41.33;;;24.70;;
52866;SDS011;38739;53.324;6.862;2022-11-18T16:48:55;44.13;;;25.63;;
52866;SDS011;38739;53.324;6.862;2022-11-18T16:51:25;43.40;;;25.88;;
52866;SDS011;38739;53.324;6.862;2022-11-18T16:53:52;45.33;;;27.10;;
52866;SDS011;38739;53.324;6.862;2022-11-18T16:56:20;46.15;;;27.13;;
52866;SDS011;38739;53.324;6.862;2022-11-18T16:58:47;40.70;;;24.80;;
52866;SDS011;38739;53.324;6.862;2022-11-18T17:01:13;40.97;;;24.80;;
52866;SDS011;38739;53.324;6.862;2022-11-18T17:03:39;40.45;;;24.52;;
52866;SDS011;38739;53.324;6.862;2022-11-18T17:06:05;41.20;;;25.90;;
52866;SDS011;38739;53.324;6.862;2022-11-18T17:08:34;44.92;;;27.27;;